Bassett, Kansas
Current Conditions -  °F | °C
As of 1:52 AM on Wednesday 26 Nov 2014 (Local Time) from KCNU Reporting Station
Overcast Overcast  
Wind Chill: 35°   Ceiling: 11000
Heat Index: 40°   Visibility: 10mi
Dew Point: 26°   Wind: 7mph
Humidity: 58%   Direction: 180°S
Pressure: 29.96"   Gusts: NA
Location:  37.9552°N, 95.4332°W
Report Text: KCNU 260752Z AUTO 18006KT 10SM OVC110 04/M03 A2996 RMK AO2 SLP147 T00441033
Loading
Personal Weather Stations






























Interactive Weather Map New forecast layout! Learn more

10-Day Weather Forecast

Advertisements
Track Severe Weather on mobile